Al-Wafra, Kuwait

4:15 AM AST on August 27, 2016 (GMT +0300)
Khairan | | Change Station

Elev -10 ft 28.67 °N, 48.38 °E | Updated 15 seconds ago

Clear
Clear
89.4 °F
Feels Like 98 °F
N
2.9
Wind Variable Wind from WSW
Gusts 5.0 mph

Today
High -- | Low -- °F
--% Chance of Precip.
Yesterday
High -- | Low -- °F
Precip. -- in
Pressure 29.65 in
Visibility -9999.0 miles
Clouds
Heat Index 98 °F
Dew Point 74 °F
Humidity 60%
Rainfall 0.00 in
Snow Depth Not available.
5:23 AM 6:14 PM
Waning Crescent, 29% visible
METAR OKBK 270100Z 16008KT CAVOK 31/15 Q1004 NOSIG
Pressure 29.65 in
Visibility -9999.0 miles
Clouds
Heat Index 98 °F
Dew Point 74 °F
Humidity 60%
Rainfall 0.00 in
Snow Depth Not available.
5:23 AM 6:14 PM
Waning Crescent, 29% visible
METAR OKBK 270100Z 16008KT CAVOK 31/15 Q1004 NOSIG

10-Day Weather Forecast

No radar image for this location.
×

Almanac

Astronomy

Aug. 27, 2016 Rise Set
Actual Time
Civil Twilight
Nautical Twilight
Astronomical Twilight
Moon
Length of Visible Light
Length of Day
Tomorrow will be .
, % of the Moon is Illuminated

Today's Extremes

Country Highs Country Lows

Community

WunderPhotos

Upload Photos

1,935,261 photos uploaded!

WunderBlog® & News

Nearby

Air Quality

  Air Quality AQ Index Pollutant
Not available.

Snow Depth

Station Depth Elevation

Earthquake Activity

City Distance Mag. Time & Date
Minimum magnitude displayed is 2.5.

Coastal Water Temperatures

Place Temperature

Stations

Nearby Weather Stations

Station Location Temp. Windchill Dew Point Humidity Wind Precip. Elev Updated Type